createdAt,value
2022-07-29T00:00:01.092Z,2.78
2022-07-29T00:02:29.142Z,2.67
2022-07-29T00:04:56.545Z,3.03
2022-07-29T00:07:23.567Z,3.15
2022-07-29T00:09:52.504Z,2.90
2022-07-29T00:12:26.062Z,3.35
2022-07-29T00:14:57.364Z,3.13
2022-07-29T00:17:26.133Z,3.50
2022-07-29T00:19:53.630Z,3.47
2022-07-29T00:22:21.381Z,3.13
2022-07-29T00:24:49.901Z,3.30
2022-07-29T00:27:17.568Z,3.85
2022-07-29T00:29:44.578Z,4.05
2022-07-29T00:32:11.919Z,3.95
2022-07-29T00:34:57.614Z,3.60
2022-07-29T00:37:24.858Z,3.33
2022-07-29T00:39:51.912Z,3.90
2022-07-29T00:42:19.043Z,3.10
2022-07-29T00:44:46.331Z,3.42
2022-07-29T00:47:13.745Z,3.25
2022-07-29T00:49:42.218Z,3.92
2022-07-29T00:52:11.379Z,3.22
2022-07-29T00:54:44.698Z,4.85
2022-07-29T00:57:13.233Z,4.80
2022-07-29T00:59:40.549Z,4.38
2022-07-29T01:02:07.813Z,4.15
2022-07-29T01:04:35.098Z,3.67
2022-07-29T01:07:03.220Z,4.00
2022-07-29T01:09:42.841Z,4.07
2022-07-29T01:12:26.035Z,4.40
2022-07-29T01:14:55.089Z,2.63
2022-07-29T01:17:27.207Z,3.05
2022-07-29T01:20:03.274Z,3.65
2022-07-29T01:22:38.510Z,2.70
2022-07-29T01:25:25.312Z,3.30
2022-07-29T01:28:04.867Z,3.92
2022-07-29T01:30:33.738Z,3.42
2022-07-29T01:33:07.043Z,3.08
2022-07-29T01:35:42.708Z,3.17
2022-07-29T01:38:14.618Z,3.53
2022-07-29T01:40:55.170Z,3.53
2022-07-29T01:43:28.148Z,4.75
2022-07-29T01:46:03.678Z,5.25
2022-07-29T01:48:51.794Z,5.18
2022-07-29T01:51:28.267Z,4.80
2022-07-29T01:54:11.642Z,4.38
2022-07-29T01:56:40.061Z,4.22
2022-07-29T01:59:09.606Z,3.80
2022-07-29T02:01:40.237Z,5.40
2022-07-29T02:04:10.844Z,4.78
2022-07-29T02:06:39.797Z,5.20
2022-07-29T02:09:08.445Z,4.85
2022-07-29T02:11:38.673Z,4.75
2022-07-29T02:14:08.067Z,4.75
2022-07-29T02:16:37.782Z,4.28
2022-07-29T02:19:08.177Z,4.40
2022-07-29T02:21:36.754Z,4.47
2022-07-29T02:24:05.611Z,4.85
2022-07-29T02:26:34.672Z,4.10
2022-07-29T02:29:03.146Z,5.07
2022-07-29T02:31:35.496Z,4.20
2022-07-29T02:34:09.365Z,4.80
2022-07-29T02:36:37.588Z,5.13
2022-07-29T02:39:05.864Z,5.30
2022-07-29T02:41:48.383Z,5.80
2022-07-29T02:44:21.498Z,5.80
2022-07-29T02:47:11.422Z,5.30
2022-07-29T02:50:00.583Z,5.43
2022-07-29T02:52:38.840Z,5.25
2022-07-29T02:55:17.479Z,4.80
2022-07-29T02:57:56.344Z,4.97
2022-07-29T03:00:29.867Z,4.30
2022-07-29T03:03:05.715Z,5.45
2022-07-29T03:05:33.879Z,4.63
2022-07-29T03:08:04.135Z,4.18
2022-07-29T03:10:32.155Z,5.40
2022-07-29T03:13:00.869Z,5.50
2022-07-29T03:15:28.294Z,5.47
2022-07-29T03:17:56.672Z,6.30
2022-07-29T03:20:24.610Z,5.20
2022-07-29T03:22:52.070Z,4.95
2022-07-29T03:25:20.803Z,4.93
2022-07-29T03:27:49.131Z,6.50
2022-07-29T03:30:21.572Z,9.13
2022-07-29T03:32:51.852Z,7.93
2022-07-29T03:35:22.625Z,5.47
2022-07-29T03:37:50.083Z,4.80
2022-07-29T03:40:28.780Z,3.97
2022-07-29T03:42:56.671Z,3.70
2022-07-29T03:45:24.866Z,3.47
2022-07-29T03:48:00.688Z,3.80
2022-07-29T03:50:31.128Z,3.47
2022-07-29T03:52:59.020Z,3.63
2022-07-29T03:55:27.468Z,4.07
2022-07-29T03:57:56.453Z,6.30
2022-07-29T04:00:25.291Z,5.43
2022-07-29T04:02:52.345Z,6.22
2022-07-29T04:05:20.154Z,4.75
2022-07-29T04:07:48.414Z,4.50
2022-07-29T04:10:26.362Z,4.32
2022-07-29T04:13:00.115Z,4.68
2022-07-29T04:15:31.156Z,4.13
2022-07-29T04:17:59.922Z,3.78
2022-07-29T04:20:26.899Z,3.65
2022-07-29T04:22:54.157Z,3.55
2022-07-29T04:25:21.305Z,4.03
2022-07-29T04:28:03.869Z,3.65
2022-07-29T04:30:32.930Z,3.30
2022-07-29T04:33:01.861Z,3.60
2022-07-29T04:35:30.297Z,2.90
2022-07-29T04:38:06.650Z,3.15
2022-07-29T04:40:34.513Z,3.85
2022-07-29T04:43:03.328Z,3.95
2022-07-29T04:45:33.044Z,3.65
2022-07-29T04:47:59.996Z,3.97
2022-07-29T04:50:27.094Z,3.67
2022-07-29T04:52:54.501Z,4.05
2022-07-29T04:55:21.604Z,3.60
2022-07-29T04:57:48.541Z,4.03
2022-07-29T05:00:15.951Z,3.88
2022-07-29T05:02:42.928Z,3.38
2022-07-29T05:05:09.989Z,3.40
2022-07-29T05:07:37.165Z,3.90
2022-07-29T05:10:04.628Z,2.95
2022-07-29T05:12:31.662Z,3.28
2022-07-29T05:14:58.859Z,3.05
2022-07-29T05:17:26.060Z,3.20
2022-07-29T05:19:53.390Z,3.15
2022-07-29T05:22:21.447Z,2.85
2022-07-29T05:24:48.741Z,3.17
2022-07-29T05:27:15.866Z,3.08
2022-07-29T05:29:45.571Z,3.60
2022-07-29T05:32:14.023Z,3.65
2022-07-29T05:34:51.216Z,3.22
2022-07-29T05:37:20.550Z,3.40
2022-07-29T05:39:50.513Z,3.10
2022-07-29T05:42:17.759Z,3.30
2022-07-29T05:44:44.889Z,3.28
2022-07-29T05:47:12.621Z,2.80
2022-07-29T05:49:39.613Z,2.92
2022-07-29T05:52:06.898Z,2.50
2022-07-29T05:54:33.867Z,2.40
2022-07-29T05:57:00.876Z,2.67
2022-07-29T05:59:30.482Z,2.80
2022-07-29T06:01:58.642Z,2.38
2022-07-29T06:04:25.820Z,2.88
2022-07-29T06:06:53.071Z,2.22
2022-07-29T06:09:20.033Z,2.65
2022-07-29T06:11:47.078Z,2.90
2022-07-29T06:14:15.157Z,1.92
2022-07-29T06:16:43.065Z,2.17
2022-07-29T06:19:10.201Z,1.65
2022-07-29T06:21:41.936Z,1.48
2022-07-29T06:24:09.242Z,1.80
2022-07-29T06:26:39.605Z,1.60
2022-07-29T06:29:07.779Z,1.80
2022-07-29T06:31:35.351Z,1.58
2022-07-29T06:34:02.318Z,1.40
2022-07-29T06:36:31.030Z,1.17
2022-07-29T06:38:57.972Z,1.48
2022-07-29T06:41:25.438Z,1.08
2022-07-29T06:43:54.483Z,1.88
2022-07-29T06:46:23.120Z,1.05
2022-07-29T06:48:50.961Z,1.33
2022-07-29T06:51:22.846Z,0.93
2022-07-29T06:54:00.282Z,0.88
2022-07-29T06:56:38.916Z,0.95
2022-07-29T06:59:08.581Z,0.95
2022-07-29T07:01:41.445Z,0.90
2022-07-29T07:04:09.891Z,0.73
2022-07-29T07:06:38.188Z,0.77
2022-07-29T07:09:05.753Z,0.90
2022-07-29T07:11:32.813Z,1.17
2022-07-29T07:14:03.482Z,1.00
2022-07-29T07:16:32.337Z,1.23
2022-07-29T07:19:00.209Z,1.30
2022-07-29T07:21:28.781Z,0.82
2022-07-29T07:23:58.098Z,1.00
2022-07-29T07:26:25.046Z,1.33
2022-07-29T07:28:52.361Z,0.90
2022-07-29T07:31:19.416Z,0.90
2022-07-29T07:33:46.635Z,0.80
2022-07-29T07:36:13.747Z,0.90
2022-07-29T07:38:40.805Z,1.00
2022-07-29T07:41:07.729Z,0.98
2022-07-29T07:43:35.007Z,1.30
2022-07-29T07:46:02.051Z,1.05
2022-07-29T07:48:29.126Z,1.40
2022-07-29T07:50:56.310Z,1.25
2022-07-29T07:53:23.508Z,1.00
2022-07-29T07:58:37.835Z,0.88
2022-07-29T08:01:04.813Z,1.20
2022-07-29T08:03:31.795Z,1.70
2022-07-29T08:05:59.093Z,1.40
2022-07-29T08:08:26.067Z,1.88
2022-07-29T08:10:53.124Z,1.20
2022-07-29T08:13:22.314Z,1.30
2022-07-29T08:15:58.628Z,1.17
2022-07-29T08:18:30.596Z,1.17
2022-07-29T08:20:58.389Z,0.80
2022-07-29T08:23:25.594Z,0.82
2022-07-29T08:25:54.905Z,0.93
2022-07-29T08:28:25.696Z,1.20
2022-07-29T08:30:53.752Z,1.75
2022-07-29T08:33:20.751Z,1.13
2022-07-29T08:35:48.014Z,1.05
2022-07-29T08:38:15.278Z,1.30
2022-07-29T08:40:42.330Z,1.10
2022-07-29T08:43:10.041Z,1.20
2022-07-29T08:45:48.178Z,1.33
2022-07-29T08:48:18.515Z,1.00
2022-07-29T08:50:47.081Z,0.82
2022-07-29T08:53:17.969Z,1.38
2022-07-29T08:55:47.671Z,0.93
2022-07-29T08:58:16.109Z,1.27
2022-07-29T09:00:51.397Z,0.90
2022-07-29T09:03:25.512Z,1.17
2022-07-29T09:05:53.227Z,0.70
2022-07-29T09:08:21.270Z,1.00
2022-07-29T09:10:49.023Z,1.00
2022-07-29T09:13:16.019Z,0.80
2022-07-29T09:15:43.404Z,1.10
2022-07-29T09:18:27.973Z,1.15
2022-07-29T09:21:16.230Z,1.20
2022-07-29T09:24:06.532Z,1.10
2022-07-29T09:26:35.751Z,1.33
2022-07-29T09:29:15.630Z,1.25
2022-07-29T09:31:46.047Z,1.30
2022-07-29T09:34:15.238Z,1.33
2022-07-29T09:36:50.648Z,1.38
2022-07-29T09:39:30.697Z,1.30
2022-07-29T09:41:59.891Z,1.15
2022-07-29T09:44:27.472Z,1.05
2022-07-29T09:47:07.917Z,1.75
2022-07-29T09:49:36.935Z,1.40
2022-07-29T09:52:07.045Z,1.35
2022-07-29T09:54:37.856Z,1.15
2022-07-29T09:57:31.159Z,0.88
2022-07-29T10:00:06.608Z,1.23
2022-07-29T10:02:40.880Z,1.30
2022-07-29T10:05:36.106Z,1.20
2022-07-29T10:08:04.765Z,1.10
2022-07-29T10:10:38.047Z,0.85
2022-07-29T10:13:10.989Z,1.05
2022-07-29T10:15:46.326Z,1.20
2022-07-29T10:18:15.591Z,1.02
2022-07-29T10:20:42.696Z,1.25
2022-07-29T10:23:10.580Z,1.08
2022-07-29T10:25:37.957Z,1.00
2022-07-29T10:28:07.201Z,1.35
2022-07-29T10:30:34.634Z,1.33
2022-07-29T10:33:20.093Z,1.67
2022-07-29T10:36:16.383Z,1.05
2022-07-29T10:39:09.936Z,0.90
2022-07-29T10:41:59.083Z,1.30
2022-07-29T10:44:28.327Z,1.10
2022-07-29T10:46:55.953Z,0.95
2022-07-29T10:49:30.430Z,0.88
2022-07-29T10:52:10.708Z,1.08
2022-07-29T10:54:43.849Z,0.90
2022-07-29T10:57:18.824Z,1.10
2022-07-29T11:00:09.861Z,0.85
2022-07-29T11:02:42.164Z,1.02
2022-07-29T11:05:13.360Z,0.98
2022-07-29T11:08:02.352Z,1.05
2022-07-29T11:10:31.422Z,1.20
2022-07-29T11:12:59.392Z,1.10
2022-07-29T11:15:28.608Z,0.98
2022-07-29T11:17:59.525Z,1.13
2022-07-29T11:20:33.512Z,1.15
2022-07-29T11:23:01.495Z,1.30
2022-07-29T11:28:23.234Z,1.20
2022-07-29T11:30:54.452Z,1.30
2022-07-29T11:33:54.643Z,1.17
2022-07-29T11:36:18.282Z,1.42
2022-07-29T11:38:45.239Z,1.48
2022-07-29T11:41:18.194Z,0.90
2022-07-29T11:43:59.925Z,0.98
2022-07-29T11:46:50.109Z,1.20
2022-07-29T11:49:21.176Z,1.50
2022-07-29T11:51:53.806Z,0.93
2022-07-29T11:54:32.897Z,1.38
2022-07-29T11:57:08.090Z,1.38
2022-07-29T11:59:43.335Z,1.75
2022-07-29T12:02:37.212Z,1.30
2022-07-29T12:05:00.328Z,1.17
2022-07-29T12:07:32.674Z,1.73
2022-07-29T12:10:04.501Z,1.30
2022-07-29T12:12:34.693Z,1.17
2022-07-29T12:15:20.351Z,1.10
2022-07-29T12:17:49.263Z,1.20
2022-07-29T12:20:36.462Z,0.98
2022-07-29T12:23:09.937Z,1.25
2022-07-29T12:25:38.156Z,0.90
2022-07-29T12:28:07.661Z,1.13
2022-07-29T12:30:49.620Z,0.98
2022-07-29T12:33:20.800Z,0.82
2022-07-29T12:36:05.933Z,1.38
2022-07-29T12:38:35.910Z,1.45
2022-07-29T12:41:04.451Z,1.30
2022-07-29T12:43:31.835Z,1.35
2022-07-29T12:45:59.117Z,1.10
2022-07-29T12:48:40.546Z,1.08
2022-07-29T12:51:09.843Z,1.42
2022-07-29T12:53:37.762Z,1.20
2022-07-29T12:56:20.559Z,1.05
2022-07-29T12:58:53.140Z,2.13
2022-07-29T13:01:21.793Z,1.13
2022-07-29T13:03:57.440Z,1.00
2022-07-29T13:06:46.194Z,1.17
2022-07-29T13:09:23.573Z,1.00
2022-07-29T13:11:53.467Z,1.40
2022-07-29T13:14:40.997Z,1.35
2022-07-29T13:17:14.277Z,1.00
2022-07-29T13:19:43.186Z,1.30
2022-07-29T13:22:12.570Z,1.35
2022-07-29T13:24:51.829Z,1.33
2022-07-29T13:27:21.292Z,1.08
2022-07-29T13:29:48.388Z,1.23
2022-07-29T13:32:15.719Z,1.33
2022-07-29T13:34:42.979Z,1.23
2022-07-29T13:37:10.112Z,1.20
2022-07-29T13:39:38.390Z,1.17
2022-07-29T13:42:10.878Z,1.30
2022-07-29T13:44:38.298Z,1.67
2022-07-29T13:47:06.272Z,1.30
2022-07-29T13:49:33.619Z,1.70
2022-07-29T13:52:01.056Z,1.48
2022-07-29T13:54:28.431Z,1.38
2022-07-29T13:56:55.569Z,1.20
2022-07-29T13:59:22.595Z,1.20
2022-07-29T14:01:49.623Z,1.40
2022-07-29T14:04:16.980Z,1.52
2022-07-29T14:06:44.424Z,1.13
2022-07-29T14:09:11.468Z,1.20
2022-07-29T14:11:39.486Z,1.20
2022-07-29T14:14:06.387Z,1.80
2022-07-29T14:16:33.413Z,1.23
2022-07-29T14:19:00.740Z,1.08
2022-07-29T14:21:27.803Z,1.42
2022-07-29T14:23:55.674Z,1.35
2022-07-29T14:26:24.213Z,1.38
2022-07-29T14:28:51.493Z,1.17
2022-07-29T14:31:18.577Z,1.20
2022-07-29T14:33:46.224Z,1.20
2022-07-29T14:36:16.421Z,1.10
2022-07-29T14:38:43.516Z,1.23
2022-07-29T14:41:10.875Z,1.20
2022-07-29T14:43:37.818Z,1.08
2022-07-29T14:46:08.309Z,0.82
2022-07-29T14:48:36.130Z,1.10
2022-07-29T14:51:04.891Z,1.40
2022-07-29T14:53:32.986Z,1.50
2022-07-29T14:56:10.387Z,1.17
2022-07-29T14:58:51.692Z,1.20
2022-07-29T15:01:19.525Z,1.38
2022-07-29T15:03:46.836Z,1.20
2022-07-29T15:06:13.904Z,1.08
2022-07-29T15:08:41.156Z,1.10
2022-07-29T15:11:08.283Z,1.20
2022-07-29T15:13:35.577Z,1.30
2022-07-29T15:16:02.859Z,0.95
2022-07-29T15:18:29.779Z,1.08
2022-07-29T15:20:56.966Z,1.40
2022-07-29T15:23:24.421Z,1.13
2022-07-29T15:25:51.434Z,1.23
2022-07-29T15:28:18.334Z,1.20
2022-07-29T15:30:45.554Z,1.20
2022-07-29T15:33:12.573Z,1.33
2022-07-29T15:35:40.323Z,1.00
2022-07-29T15:38:08.906Z,1.40
2022-07-29T15:40:38.851Z,1.15
2022-07-29T15:43:06.864Z,0.95
2022-07-29T15:45:42.229Z,0.80
2022-07-29T15:48:10.179Z,1.15
2022-07-29T15:50:41.993Z,1.20
2022-07-29T15:53:08.940Z,1.30
2022-07-29T15:55:35.868Z,1.30
2022-07-29T15:58:03.037Z,1.23
2022-07-29T16:00:29.967Z,1.60
2022-07-29T16:02:57.144Z,1.30
2022-07-29T16:05:24.503Z,1.63
2022-07-29T16:07:51.514Z,1.05
2022-07-29T16:10:18.535Z,1.15
2022-07-29T16:12:45.662Z,1.20
2022-07-29T16:15:12.687Z,0.95
2022-07-29T16:17:39.724Z,1.42
2022-07-29T16:20:07.468Z,1.10
2022-07-29T16:22:34.799Z,1.80
2022-07-29T16:25:01.844Z,1.77
2022-07-29T16:27:37.606Z,0.90
2022-07-29T16:30:08.295Z,1.00
2022-07-29T16:32:35.694Z,1.02
2022-07-29T16:35:05.095Z,1.25
2022-07-29T16:37:35.538Z,1.08
2022-07-29T16:40:07.260Z,0.93
2022-07-29T16:42:47.211Z,1.05
2022-07-29T16:45:16.253Z,1.40
2022-07-29T16:47:43.480Z,1.30
2022-07-29T16:50:10.795Z,1.20
2022-07-29T16:52:38.383Z,1.05
2022-07-29T16:55:05.733Z,1.70
2022-07-29T16:57:32.888Z,1.30
2022-07-29T17:00:00.014Z,1.00
2022-07-29T17:02:27.123Z,1.40
2022-07-29T17:04:54.091Z,1.30
2022-07-29T17:07:21.252Z,1.20
2022-07-29T17:09:50.572Z,1.23
2022-07-29T17:12:20.905Z,1.30
2022-07-29T17:14:48.050Z,0.95
2022-07-29T17:17:16.597Z,1.20
2022-07-29T17:19:48.144Z,1.45
2022-07-29T17:22:19.279Z,1.45
2022-07-29T17:24:47.657Z,1.67
2022-07-29T17:27:15.178Z,1.30
2022-07-29T17:29:42.927Z,1.40
2022-07-29T17:32:10.948Z,1.35
2022-07-29T17:34:42.049Z,1.90
2022-07-29T17:37:10.948Z,1.33
2022-07-29T17:39:40.815Z,0.90
2022-07-29T17:42:10.110Z,1.48
2022-07-29T17:44:38.212Z,1.45
2022-07-29T17:47:07.929Z,1.60
2022-07-29T17:49:44.553Z,1.02
2022-07-29T17:52:11.473Z,1.17
2022-07-29T17:54:38.389Z,1.45
2022-07-29T17:57:05.530Z,1.27
2022-07-29T17:59:32.495Z,1.30
2022-07-29T18:01:59.511Z,1.60
2022-07-29T18:04:26.749Z,1.27
2022-07-29T18:06:53.867Z,1.15
2022-07-29T18:09:20.861Z,1.40
2022-07-29T18:11:48.931Z,1.52
2022-07-29T18:14:17.066Z,1.10
2022-07-29T18:16:44.122Z,1.15
2022-07-29T18:19:11.301Z,1.25
2022-07-29T18:21:50.943Z,1.23
2022-07-29T18:24:25.593Z,1.10
2022-07-29T18:26:53.757Z,1.00
2022-07-29T18:29:21.176Z,1.20
2022-07-29T18:31:48.435Z,1.20
2022-07-29T18:34:17.069Z,1.20
2022-07-29T18:36:45.841Z,1.40
2022-07-29T18:39:20.927Z,1.13
2022-07-29T18:41:51.699Z,1.15
2022-07-29T18:44:21.888Z,1.52
2022-07-29T18:46:51.589Z,0.90
2022-07-29T18:49:19.114Z,2.00
2022-07-29T18:51:46.508Z,1.25
2022-07-29T18:54:13.539Z,1.35
2022-07-29T18:56:40.629Z,1.15
2022-07-29T18:59:08.274Z,1.20
2022-07-29T19:01:35.482Z,1.45
2022-07-29T19:04:02.625Z,1.13
2022-07-29T19:06:30.114Z,0.90
2022-07-29T19:08:57.184Z,1.05
2022-07-29T19:11:24.080Z,1.40
2022-07-29T19:13:51.342Z,1.00
2022-07-29T19:16:18.595Z,1.40
2022-07-29T19:18:47.428Z,1.30
2022-07-29T19:21:14.683Z,1.20
2022-07-29T19:24:02.417Z,1.25
2022-07-29T19:26:29.671Z,1.33
2022-07-29T19:28:56.961Z,1.35
2022-07-29T19:31:24.023Z,1.27
2022-07-29T19:33:51.299Z,1.17
2022-07-29T19:36:18.297Z,1.00
2022-07-29T19:38:45.388Z,1.42
2022-07-29T19:41:13.228Z,1.40
2022-07-29T19:43:50.887Z,1.30
2022-07-29T19:46:22.979Z,1.20
2022-07-29T19:48:50.571Z,1.75
2022-07-29T19:51:17.628Z,1.17
2022-07-29T19:53:44.796Z,1.08
2022-07-29T19:56:11.831Z,1.27
2022-07-29T19:58:40.574Z,1.00
2022-07-29T20:01:10.789Z,1.48
2022-07-29T20:03:43.083Z,1.10
2022-07-29T20:06:10.827Z,1.90
2022-07-29T20:08:37.781Z,1.63
2022-07-29T20:11:05.127Z,1.40
2022-07-29T20:13:33.703Z,1.95
2022-07-29T20:16:02.100Z,2.65
2022-07-29T20:18:29.113Z,2.58
2022-07-29T20:20:57.573Z,2.97
2022-07-29T20:23:24.714Z,2.45
2022-07-29T20:25:51.861Z,1.33
2022-07-29T20:28:19.077Z,1.10
2022-07-29T20:30:47.647Z,1.63
2022-07-29T20:33:15.199Z,1.52
2022-07-29T20:35:43.752Z,1.50
2022-07-29T20:38:13.013Z,1.55
2022-07-29T20:40:43.612Z,1.30
2022-07-29T20:43:10.560Z,1.17
2022-07-29T20:45:38.066Z,1.10
2022-07-29T20:48:06.010Z,1.02
2022-07-29T20:50:36.023Z,1.00
2022-07-29T20:53:03.280Z,1.45
2022-07-29T20:55:32.061Z,1.13
2022-07-29T20:57:59.150Z,1.13
2022-07-29T21:00:26.185Z,1.10
2022-07-29T21:02:53.389Z,1.02
2022-07-29T21:05:20.805Z,1.40
2022-07-29T21:07:47.756Z,1.30
2022-07-29T21:10:18.158Z,1.35
2022-07-29T21:12:48.831Z,1.52
2022-07-29T21:15:16.387Z,1.27
2022-07-29T21:17:47.266Z,1.23
2022-07-29T21:20:16.412Z,1.20
2022-07-29T21:22:44.862Z,1.10
2022-07-29T21:25:12.363Z,1.17
2022-07-29T21:27:57.653Z,1.02
2022-07-29T21:30:24.859Z,1.50
2022-07-29T21:32:51.884Z,1.25
2022-07-29T21:35:52.163Z,1.33
2022-07-29T21:38:05.958Z,1.40
2022-07-29T21:40:32.909Z,1.30
2022-07-29T21:42:59.938Z,1.73
2022-07-29T21:45:27.247Z,1.65
2022-07-29T21:47:54.218Z,1.73
2022-07-29T21:50:21.150Z,1.70
2022-07-29T21:52:48.394Z,1.45
2022-07-29T21:55:15.417Z,1.52
2022-07-29T21:57:45.779Z,1.58
2022-07-29T22:00:15.976Z,1.75
2022-07-29T22:02:43.644Z,1.48
2022-07-29T22:05:12.230Z,1.30
2022-07-29T22:07:55.305Z,1.33
2022-07-29T22:10:26.207Z,1.40
2022-07-29T22:12:54.821Z,2.17
2022-07-29T22:15:22.401Z,1.50
2022-07-29T22:17:49.892Z,1.40
2022-07-29T22:20:17.091Z,1.52
2022-07-29T22:22:44.130Z,1.90
2022-07-29T22:25:11.719Z,2.05
2022-07-29T22:27:39.405Z,1.80
2022-07-29T22:30:07.516Z,1.48
2022-07-29T22:32:35.037Z,2.03
2022-07-29T22:35:02.172Z,1.75
2022-07-29T22:37:29.150Z,1.50
2022-07-29T22:39:56.328Z,1.77
2022-07-29T22:42:23.729Z,1.70
2022-07-29T22:44:50.687Z,1.77
2022-07-29T22:47:17.678Z,1.85
2022-07-29T22:50:05.519Z,1.60
2022-07-29T22:52:32.422Z,2.03
2022-07-29T22:54:59.390Z,1.58
2022-07-29T22:57:26.602Z,1.60
2022-07-29T22:59:53.594Z,1.52
2022-07-29T23:02:20.605Z,2.25
2022-07-29T23:04:47.799Z,1.83
2022-07-29T23:07:14.805Z,1.55
2022-07-29T23:09:41.752Z,1.80
2022-07-29T23:12:09.136Z,1.67
2022-07-29T23:14:36.029Z,1.65
2022-07-29T23:17:03.588Z,1.55
2022-07-29T23:19:31.216Z,1.30
2022-07-29T23:21:58.252Z,1.70
2022-07-29T23:24:25.195Z,1.80
2022-07-29T23:26:52.402Z,1.65
2022-07-29T23:29:19.640Z,1.92
2022-07-29T23:31:48.303Z,1.90
2022-07-29T23:34:15.741Z,1.58
2022-07-29T23:36:42.766Z,1.30
2022-07-29T23:39:11.422Z,1.92
2022-07-29T23:41:38.891Z,1.80
2022-07-29T23:44:06.021Z,1.50
2022-07-29T23:46:33.176Z,2.15
2022-07-29T23:49:00.447Z,1.85
2022-07-29T23:51:29.262Z,1.85
2022-07-29T23:53:56.966Z,1.48
2022-07-29T23:56:24.234Z,1.88
2022-07-29T23:58:51.232Z,1.90
